Atwood, Tennessee
Current Conditions -  °F | °C
As of 2:53 PM on Sunday 21 Dec 2014 (Local Time) from KMKL Reporting Station
Clear Clear  
Wind Chill: 54°   Ceiling: Unl
Heat Index: 54°   Visibility: 10mi
Dew Point: 30°   Wind: 3mph
Humidity: 40%   Direction: 110°ESE
Pressure: 30.05"   Gusts: NA
Location:  35.97°N, 88.68°W
Report Text: KMKL 212053Z 11003KT 10SM CLR 12/M01 A3005 RMK AO2 SLP179 T01221011 56029
Loading
Personal Weather Stations






























Interactive Weather Map New forecast layout! Learn more

10-Day Weather Forecast

Advertisements
Track Severe Weather on mobile